sensor_id;sensor_type;location;lat;lon;timestamp;pressure;altitude;pressure_sealevel;temperature;humidity
62072;BME280;48031;48.542;13.232;2024-01-30T00:03:45;52999.38;;;-142.07;85.83
62072;BME280;48031;48.542;13.232;2024-01-30T00:07:47;53260.19;;;-142.07;89.44
62072;BME280;48031;48.542;13.232;2024-01-30T00:11:49;53231.19;;;-142.07;89.58
62072;BME280;48031;48.542;13.232;2024-01-30T00:15:51;53233.25;;;-142.07;89.95
62072;BME280;48031;48.542;13.232;2024-01-30T00:19:53;53220.84;;;-142.07;90.54
62072;BME280;48031;48.542;13.232;2024-01-30T00:23:55;53216.72;;;-142.07;89.79
62072;BME280;48031;48.542;13.232;2024-01-30T00:27:57;53073.88;;;-142.07;87.24
62072;BME280;48031;48.542;13.232;2024-01-30T00:31:59;53210.50;;;-142.07;89.69
62072;BME280;48031;48.542;13.232;2024-01-30T00:36:01;53167.03;;;-142.07;88.06
62072;BME280;48031;48.542;13.232;2024-01-30T00:40:05;53231.19;;;-142.07;89.14
62072;BME280;48031;48.542;13.232;2024-01-30T00:44:08;53210.50;;;-142.07;89.03
62072;BME280;48031;48.542;13.232;2024-01-30T00:48:09;53086.31;;;-142.07;86.78
62072;BME280;48031;48.542;13.232;2024-01-30T00:52:11;53140.13;;;-142.07;87.93
62072;BME280;48031;48.542;13.232;2024-01-30T00:56:14;53169.09;;;-142.07;89.01
62072;BME280;48031;48.542;13.232;2024-01-30T01:00:15;53148.41;;;-142.07;89.00
62072;BME280;48031;48.542;13.232;2024-01-30T01:04:19;53127.69;;;-142.07;88.43
62072;BME280;48031;48.542;13.232;2024-01-30T01:08:23;53187.72;;;-142.07;88.82
62072;BME280;48031;48.542;13.232;2024-01-30T01:18:44;53146.34;;;-142.07;89.25
62072;BME280;48031;48.542;13.232;2024-01-30T01:27:41;53102.88;;;-142.07;88.05
62072;BME280;48031;48.542;13.232;2024-01-30T01:31:44;53123.56;;;-142.07;88.62
62072;BME280;48031;48.542;13.232;2024-01-30T01:35:46;53173.25;;;-142.07;88.70
62072;BME280;48031;48.542;13.232;2024-01-30T01:39:48;53102.88;;;-142.07;89.23
62072;BME280;48031;48.542;13.232;2024-01-30T01:43:49;53206.34;;;-142.07;91.03
62072;BME280;48031;48.542;13.232;2024-01-30T01:47:54;53218.78;;;-142.07;90.54
62072;BME280;48031;48.542;13.232;2024-01-30T01:51:56;53196.00;;;-142.07;90.53
62072;BME280;48031;48.542;13.232;2024-01-30T01:55:59;53181.53;;;-142.07;89.99
62072;BME280;48031;48.542;13.232;2024-01-30T02:00:02;53243.63;;;-142.07;91.25
62072;BME280;48031;48.542;13.232;2024-01-30T02:04:09;53258.09;;;-142.07;91.12
62072;BME280;48031;48.542;13.232;2024-01-30T02:08:11;53233.25;;;-142.07;89.87
62072;BME280;48031;48.542;13.232;2024-01-30T02:12:14;52972.47;;;-142.07;86.05
62072;BME280;48031;48.542;13.232;2024-01-30T02:16:16;53115.28;;;-142.07;88.01
62072;BME280;48031;48.542;13.232;2024-01-30T02:20:22;53177.38;;;-142.07;88.89
62072;BME280;48031;48.542;13.232;2024-01-30T02:24:27;53171.16;;;-142.07;88.86
62072;BME280;48031;48.542;13.232;2024-01-30T02:28:29;53148.41;;;-142.07;88.94
62072;BME280;48031;48.542;13.232;2024-01-30T02:32:31;53162.88;;;-142.07;89.44
62072;BME280;48031;48.542;13.232;2024-01-30T02:36:33;53115.28;;;-142.07;89.77
62072;BME280;48031;48.542;13.232;2024-01-30T02:40:35;53175.31;;;-142.07;90.70
62072;BME280;48031;48.542;13.232;2024-01-30T02:44:37;53135.97;;;-142.07;89.30
62072;BME280;48031;48.542;13.232;2024-01-30T02:48:40;53111.13;;;-142.07;88.09
62072;BME280;48031;48.542;13.232;2024-01-30T02:52:42;53117.34;;;-142.07;89.79
62072;BME280;48031;48.542;13.232;2024-01-30T02:56:47;53109.06;;;-142.07;90.00
62072;BME280;48031;48.542;13.232;2024-01-30T03:00:50;53100.78;;;-142.07;89.01
62072;BME280;48031;48.542;13.232;2024-01-30T03:04:52;53121.50;;;-142.07;89.40
62072;BME280;48031;48.542;13.232;2024-01-30T03:08:54;53088.38;;;-142.07;88.36
62072;BME280;48031;48.542;13.232;2024-01-30T03:12:56;53065.59;;;-142.07;89.30
62072;BME280;48031;48.542;13.232;2024-01-30T03:16:58;53133.91;;;-142.07;90.38
62072;BME280;48031;48.542;13.232;2024-01-30T03:20:59;53036.63;;;-142.07;89.89
62072;BME280;48031;48.542;13.232;2024-01-30T03:25:02;53227.06;;;-142.07;91.29
62072;BME280;48031;48.542;13.232;2024-01-30T03:29:04;53262.25;;;-142.07;93.36
62072;BME280;48031;48.542;13.232;2024-01-30T03:33:06;53212.56;;;-142.07;92.39
62072;BME280;48031;48.542;13.232;2024-01-30T03:37:09;53293.28;;;-142.07;92.26
62072;BME280;48031;48.542;13.232;2024-01-30T03:41:11;53295.38;;;-142.07;91.30
62072;BME280;48031;48.542;13.232;2024-01-30T03:45:13;53121.50;;;-142.07;89.42
62072;BME280;48031;48.542;13.232;2024-01-30T03:49:15;53123.56;;;-142.07;89.22
62072;BME280;48031;48.542;13.232;2024-01-30T03:53:17;53169.09;;;-142.07;89.66
62072;BME280;48031;48.542;13.232;2024-01-30T03:57:19;53148.41;;;-142.07;89.35
62072;BME280;48031;48.542;13.232;2024-01-30T04:01:21;53138.06;;;-142.07;89.44
62072;BME280;48031;48.542;13.232;2024-01-30T04:05:23;53098.72;;;-142.07;89.70
62072;BME280;48031;48.542;13.232;2024-01-30T04:09:25;53071.81;;;-142.07;88.74
62072;BME280;48031;48.542;13.232;2024-01-30T04:13:30;53177.38;;;-142.07;92.14
62072;BME280;48031;48.542;13.232;2024-01-30T04:17:32;53179.44;;;-142.07;91.58
62072;BME280;48031;48.542;13.232;2024-01-30T04:21:34;53229.13;;;-142.07;92.55
62072;BME280;48031;48.542;13.232;2024-01-30T04:25:38;53268.47;;;-142.07;93.27
62072;BME280;48031;48.542;13.232;2024-01-30T04:29:40;53193.94;;;-142.07;91.74
62072;BME280;48031;48.542;13.232;2024-01-30T04:33:42;53175.31;;;-142.07;91.09
62072;BME280;48031;48.542;13.232;2024-01-30T04:37:44;53229.13;;;-142.07;91.86
62072;BME280;48031;48.542;13.232;2024-01-30T04:41:47;53160.81;;;-142.07;91.31
62072;BME280;48031;48.542;13.232;2024-01-30T04:45:50;53167.03;;;-142.07;92.34
62072;BME280;48031;48.542;13.232;2024-01-30T04:49:52;53173.25;;;-142.07;92.75
62072;BME280;48031;48.542;13.232;2024-01-30T04:53:54;53212.56;;;-142.07;91.07
62072;BME280;48031;48.542;13.232;2024-01-30T04:57:57;53078.03;;;-142.07;90.58
62072;BME280;48031;48.542;13.232;2024-01-30T05:01:59;53208.44;;;-142.07;92.60
62072;BME280;48031;48.542;13.232;2024-01-30T05:06:01;53262.25;;;-142.07;94.41
62072;BME280;48031;48.542;13.232;2024-01-30T05:10:04;53225.00;;;-142.07;92.62
62072;BME280;48031;48.542;13.232;2024-01-30T05:14:08;53305.72;;;-142.07;94.15
62072;BME280;48031;48.542;13.232;2024-01-30T05:18:11;53175.31;;;-142.07;91.21
62072;BME280;48031;48.542;13.232;2024-01-30T05:28:31;53216.72;;;-142.07;93.03
62072;BME280;48031;48.542;13.232;2024-01-30T05:38:58;53272.59;;;-142.07;94.63
62072;BME280;48031;48.542;13.232;2024-01-30T05:42:59;53218.78;;;-142.07;93.20
62072;BME280;48031;48.542;13.232;2024-01-30T05:47:03;53220.84;;;-142.07;93.67
62072;BME280;48031;48.542;13.232;2024-01-30T05:51:07;53355.41;;;-142.07;93.66
62072;BME280;48031;48.542;13.232;2024-01-30T05:55:09;53177.38;;;-142.07;90.91
62072;BME280;48031;48.542;13.232;2024-01-30T05:59:12;53268.47;;;-142.07;93.03
62072;BME280;48031;48.542;13.232;2024-01-30T06:03:14;53187.72;;;-142.07;92.44
62072;BME280;48031;48.542;13.232;2024-01-30T06:07:15;53148.41;;;-142.07;90.05
62072;BME280;48031;48.542;13.232;2024-01-30T06:17:28;52974.53;;;-142.07;87.86
62072;BME280;48031;48.542;13.232;2024-01-30T06:21:30;53028.34;;;-142.07;91.26
62072;BME280;48031;48.542;13.232;2024-01-30T06:25:33;53102.88;;;-142.07;91.17
62072;BME280;48031;48.542;13.232;2024-01-30T06:29:35;53131.84;;;-142.07;91.80
62072;BME280;48031;48.542;13.232;2024-01-30T06:33:37;53148.41;;;-142.07;92.36
62072;BME280;48031;48.542;13.232;2024-01-30T06:53:11;52850.34;;;-142.07;85.52
62072;BME280;48031;48.542;13.232;2024-01-30T06:57:13;52858.63;;;-142.07;86.20
62072;BME280;48031;48.542;13.232;2024-01-30T07:01:16;52916.59;;;-142.07;87.39
62072;BME280;48031;48.542;13.232;2024-01-30T07:05:18;53073.88;;;-142.07;91.12
62072;BME280;48031;48.542;13.232;2024-01-30T07:09:20;53094.59;;;-142.07;91.53
62072;BME280;48031;48.542;13.232;2024-01-30T07:13:22;53069.75;;;-142.07;90.92
62072;BME280;48031;48.542;13.232;2024-01-30T07:17:24;53051.13;;;-142.07;88.77
62072;BME280;48031;48.542;13.232;2024-01-30T07:21:26;53059.41;;;-142.07;89.35
62072;BME280;48031;48.542;13.232;2024-01-30T07:25:30;53022.13;;;-142.07;88.67
62072;BME280;48031;48.542;13.232;2024-01-30T07:29:32;53059.41;;;-142.07;89.65
62072;BME280;48031;48.542;13.232;2024-01-30T07:33:34;53028.34;;;-142.07;88.08
62072;BME280;48031;48.542;13.232;2024-01-30T07:37:36;53075.97;;;-142.07;89.48
62072;BME280;48031;48.542;13.232;2024-01-30T07:41:38;53096.66;;;-142.07;89.82
62072;BME280;48031;48.542;13.232;2024-01-30T07:45:40;53123.56;;;-142.07;89.61
62072;BME280;48031;48.542;13.232;2024-01-30T07:49:42;53061.47;;;-142.07;88.83
62072;BME280;48031;48.542;13.232;2024-01-30T07:53:54;53158.75;;;-142.07;89.12
62072;BME280;48031;48.542;13.232;2024-01-30T07:57:57;53177.38;;;-142.07;91.03
62072;BME280;48031;48.542;13.232;2024-01-30T08:02:00;53218.78;;;-142.07;89.99
62072;BME280;48031;48.542;13.232;2024-01-30T08:06:03;53204.28;;;-142.07;90.01
62072;BME280;48031;48.542;13.232;2024-01-30T08:10:05;53075.97;;;-142.07;87.86
62072;BME280;48031;48.542;13.232;2024-01-30T08:14:08;53148.41;;;-142.07;89.26
62072;BME280;48031;48.542;13.232;2024-01-30T08:18:09;53169.09;;;-142.07;88.34
62072;BME280;48031;48.542;13.232;2024-01-30T08:22:12;53235.34;;;-142.07;88.54
62072;BME280;48031;48.542;13.232;2024-01-30T08:26:14;53212.56;;;-142.07;89.35
62072;BME280;48031;48.542;13.232;2024-01-30T08:30:16;53305.72;;;-142.07;89.99
62072;BME280;48031;48.542;13.232;2024-01-30T08:34:18;53268.47;;;-142.07;88.11
62072;BME280;48031;48.542;13.232;2024-01-30T08:38:20;53293.28;;;-142.07;87.49
62072;BME280;48031;48.542;13.232;2024-01-30T08:42:22;53148.41;;;-142.07;86.51
62072;BME280;48031;48.542;13.232;2024-01-30T08:46:24;53442.34;;;-142.07;87.69
62072;BME280;48031;48.542;13.232;2024-01-30T08:50:27;53049.03;;;-142.07;84.64
62072;BME280;48031;48.542;13.232;2024-01-30T08:54:29;53092.50;;;-142.07;84.57
62072;BME280;48031;48.542;13.232;2024-01-30T08:58:31;53214.63;;;-142.07;84.98
62072;BME280;48031;48.542;13.232;2024-01-30T09:02:33;53169.09;;;-142.07;84.81
62072;BME280;48031;48.542;13.232;2024-01-30T09:06:35;53024.22;;;-142.07;83.75
62072;BME280;48031;48.542;13.232;2024-01-30T09:10:37;53256.03;;;-142.07;86.20
62072;BME280;48031;48.542;13.232;2024-01-30T09:14:40;53231.19;;;-142.07;84.72
62072;BME280;48031;48.542;13.232;2024-01-30T09:18:44;53067.69;;;-142.07;81.48
62072;BME280;48031;48.542;13.232;2024-01-30T09:22:49;52871.03;;;-142.07;78.07
62072;BME280;48031;48.542;13.232;2024-01-30T09:26:51;52595.78;;;-142.07;78.21
62072;BME280;48031;48.542;13.232;2024-01-30T09:30:53;52608.19;;;-142.07;78.91
62072;BME280;48031;48.542;13.232;2024-01-30T09:34:55;52970.41;;;-142.07;81.88
62072;BME280;48031;48.542;13.232;2024-01-30T09:38:57;52875.19;;;-142.07;80.69
62072;BME280;48031;48.542;13.232;2024-01-30T09:42:59;52823.44;;;-142.07;80.94
62072;BME280;48031;48.542;13.232;2024-01-30T09:47:01;52949.69;;;-142.07;82.51
62072;BME280;48031;48.542;13.232;2024-01-30T09:51:08;53049.03;;;-142.07;83.59
62072;BME280;48031;48.542;13.232;2024-01-30T09:55:11;52929.00;;;-142.07;82.39
62072;BME280;48031;48.542;13.232;2024-01-30T09:59:14;53007.66;;;-142.07;81.53
62072;BME280;48031;48.542;13.232;2024-01-30T10:03:16;52829.66;;;-142.07;79.21
62072;BME280;48031;48.542;13.232;2024-01-30T10:07:20;52676.50;;;-142.07;76.98
62072;BME280;48031;48.542;13.232;2024-01-30T10:11:23;52382.63;;;-142.07;75.47
62072;BME280;48031;48.542;13.232;2024-01-30T10:15:28;52488.16;;;-142.07;75.42
62072;BME280;48031;48.542;13.232;2024-01-30T10:19:29;52341.22;;;-142.07;74.29
62072;BME280;48031;48.542;13.232;2024-01-30T10:23:33;52250.19;;;-142.07;72.67
62072;BME280;48031;48.542;13.232;2024-01-30T10:27:36;52277.06;;;-142.07;73.83
62072;BME280;48031;48.542;13.232;2024-01-30T10:31:38;52163.25;;;-142.07;71.30
62072;BME280;48031;48.542;13.232;2024-01-30T10:35:41;52034.97;;;-142.07;69.01
62072;BME280;48031;48.542;13.232;2024-01-30T10:39:44;52202.56;;;-142.07;70.15
62072;BME280;48031;48.542;13.232;2024-01-30T10:43:57;52150.84;;;-142.07;69.09
62072;BME280;48031;48.542;13.232;2024-01-30T10:48:01;52115.66;;;-142.07;68.87
62072;BME280;48031;48.542;13.232;2024-01-30T10:52:08;52041.16;;;-142.07;67.06
62072;BME280;48031;48.542;13.232;2024-01-30T10:56:11;51995.66;;;-142.07;66.64
62072;BME280;48031;48.542;13.232;2024-01-30T11:00:14;51997.72;;;-142.07;65.20
62072;BME280;48031;48.542;13.232;2024-01-30T11:04:17;52086.69;;;-142.07;64.38
62072;BME280;48031;48.542;13.232;2024-01-30T11:08:24;52208.78;;;-142.07;64.93
62072;BME280;48031;48.542;13.232;2024-01-30T11:12:28;52068.06;;;-142.07;63.15
62072;BME280;48031;48.542;13.232;2024-01-30T11:16:32;52150.84;;;-142.07;62.13
62072;BME280;48031;48.542;13.232;2024-01-30T11:20:34;52266.72;;;-142.07;58.32
62072;BME280;48031;48.542;13.232;2024-01-30T11:24:47;52175.69;;;-142.07;56.85
62072;BME280;48031;48.542;13.232;2024-01-30T11:28:52;52117.72;;;-142.07;57.65
62072;BME280;48031;48.542;13.232;2024-01-30T11:33:02;52233.63;;;-142.07;54.47
62072;BME280;48031;48.542;13.232;2024-01-30T11:37:11;52229.47;;;-142.07;56.88
62072;BME280;48031;48.542;13.232;2024-01-30T11:41:15;52157.06;;;-142.07;55.49
62072;BME280;48031;48.542;13.232;2024-01-30T11:45:17;52332.94;;;-142.07;53.86
62072;BME280;48031;48.542;13.232;2024-01-30T11:49:23;52390.91;;;-142.07;53.12
62072;BME280;48031;48.542;13.232;2024-01-30T11:53:25;52349.50;;;-142.07;51.22
62072;BME280;48031;48.542;13.232;2024-01-30T11:57:27;52320.53;;;-142.07;50.76
62072;BME280;48031;48.542;13.232;2024-01-30T12:01:29;52047.38;;;-142.07;53.16
62072;BME280;48031;48.542;13.232;2024-01-30T12:05:34;52010.13;;;-142.07;53.69
62072;BME280;48031;48.542;13.232;2024-01-30T12:09:36;51993.56;;;-142.07;53.53
62072;BME280;48031;48.542;13.232;2024-01-30T12:13:39;52380.56;;;-142.07;50.61
62072;BME280;48031;48.542;13.232;2024-01-30T12:17:41;52593.72;;;-142.07;46.07
62072;BME280;48031;48.542;13.232;2024-01-30T12:21:43;53022.13;;;-142.07;42.51
62072;BME280;48031;48.542;13.232;2024-01-30T12:25:45;52742.72;;;-142.07;41.61
62072;BME280;48031;48.542;13.232;2024-01-30T12:29:47;52684.78;;;-142.07;41.28
62072;BME280;48031;48.542;13.232;2024-01-30T12:33:49;52742.72;;;-142.07;40.49
62072;BME280;48031;48.542;13.232;2024-01-30T12:37:51;52573.00;;;-142.07;40.00
62072;BME280;48031;48.542;13.232;2024-01-30T12:41:54;52595.78;;;-142.07;40.86
62072;BME280;48031;48.542;13.232;2024-01-30T12:45:55;52268.81;;;-142.07;41.52
62072;BME280;48031;48.542;13.232;2024-01-30T12:49:58;52225.34;;;-142.07;42.17
62072;BME280;48031;48.542;13.232;2024-01-30T12:54:04;51496.97;;;-142.07;43.33
62072;BME280;48031;48.542;13.232;2024-01-30T12:58:06;51701.81;;;-142.07;42.17
62072;BME280;48031;48.542;13.232;2024-01-30T13:02:09;51919.09;;;-142.07;44.09
62072;BME280;48031;48.542;13.232;2024-01-30T13:06:11;51921.16;;;-142.07;44.53
62072;BME280;48031;48.542;13.232;2024-01-30T13:10:13;52126.00;;;-142.07;43.94
62072;BME280;48031;48.542;13.232;2024-01-30T13:14:16;52059.78;;;-142.07;43.94
62072;BME280;48031;48.542;13.232;2024-01-30T13:18:18;52217.06;;;-142.07;42.74
62072;BME280;48031;48.542;13.232;2024-01-30T13:22:20;52159.13;;;-142.07;43.53
62072;BME280;48031;48.542;13.232;2024-01-30T13:26:26;51416.28;;;-142.07;42.27
62072;BME280;48031;48.542;13.232;2024-01-30T13:30:28;51921.16;;;-142.07;41.42
62072;BME280;48031;48.542;13.232;2024-01-30T13:34:30;51273.53;;;-142.07;40.19
62072;BME280;48031;48.542;13.232;2024-01-30T13:38:32;51430.78;;;-142.07;39.36
62072;BME280;48031;48.542;13.232;2024-01-30T13:42:35;52053.59;;;-142.07;40.38
62072;BME280;48031;48.542;13.232;2024-01-30T13:46:37;52266.72;;;-142.07;40.16
62072;BME280;48031;48.542;13.232;2024-01-30T13:50:40;52243.97;;;-142.07;41.26
62072;BME280;48031;48.542;13.232;2024-01-30T13:54:42;52167.41;;;-142.07;41.90
62072;BME280;48031;48.542;13.232;2024-01-30T13:58:44;52138.44;;;-142.07;42.86
62072;BME280;48031;48.542;13.232;2024-01-30T14:02:46;51964.59;;;-142.07;43.42
62072;BME280;48031;48.542;13.232;2024-01-30T14:06:48;51948.06;;;-142.07;44.23
62072;BME280;48031;48.542;13.232;2024-01-30T14:11:01;52045.31;;;-142.07;43.20
62072;BME280;48031;48.542;13.232;2024-01-30T14:15:04;52088.75;;;-142.07;43.59
62072;BME280;48031;48.542;13.232;2024-01-30T14:19:20;51865.28;;;-142.07;45.41
62072;BME280;48031;48.542;13.232;2024-01-30T14:23:22;51962.53;;;-142.07;45.54
62072;BME280;48031;48.542;13.232;2024-01-30T14:27:24;51852.88;;;-142.07;45.69
62072;BME280;48031;48.542;13.232;2024-01-30T14:31:26;51801.13;;;-142.07;47.43
62072;BME280;48031;48.542;13.232;2024-01-30T14:35:28;51801.13;;;-142.07;47.51
62072;BME280;48031;48.542;13.232;2024-01-30T14:39:31;51794.94;;;-142.07;47.48
62072;BME280;48031;48.542;13.232;2024-01-30T14:43:33;51780.44;;;-142.07;48.00
62072;BME280;48031;48.542;13.232;2024-01-30T14:47:35;51714.22;;;-142.07;49.37
62072;BME280;48031;48.542;13.232;2024-01-30T14:51:38;51631.47;;;-142.07;50.64
62072;BME280;48031;48.542;13.232;2024-01-30T14:55:41;51656.31;;;-142.07;49.20
62072;BME280;48031;48.542;13.232;2024-01-30T14:59:43;51635.59;;;-142.07;50.14
62072;BME280;48031;48.542;13.232;2024-01-30T15:03:45;51565.25;;;-142.07;51.61
62072;BME280;48031;48.542;13.232;2024-01-30T15:07:47;51606.63;;;-142.07;50.67
62072;BME280;48031;48.542;13.232;2024-01-30T15:11:49;51494.91;;;-142.07;53.28
62072;BME280;48031;48.542;13.232;2024-01-30T15:15:52;51474.22;;;-142.07;52.59
62072;BME280;48031;48.542;13.232;2024-01-30T15:19:54;51403.88;;;-142.07;56.69
62072;BME280;48031;48.542;13.232;2024-01-30T15:23:56;51368.72;;;-142.07;58.19
62072;BME280;48031;48.542;13.232;2024-01-30T15:27:58;51490.78;;;-142.07;61.33
62072;BME280;48031;48.542;13.232;2024-01-30T15:32:00;51468.00;;;-142.07;58.64
62072;BME280;48031;48.542;13.232;2024-01-30T15:36:02;51432.84;;;-142.07;60.47
62072;BME280;48031;48.542;13.232;2024-01-30T15:40:05;51410.09;;;-142.07;61.22
62072;BME280;48031;48.542;13.232;2024-01-30T15:44:30;51443.19;;;-142.07;63.99
62072;BME280;48031;48.542;13.232;2024-01-30T15:48:52;51530.09;;;-142.07;67.41
62072;BME280;48031;48.542;13.232;2024-01-30T15:53:14;51857.00;;;-142.07;72.46
62072;BME280;48031;48.542;13.232;2024-01-30T15:57:35;51770.09;;;-142.07;71.58
62072;BME280;48031;48.542;13.232;2024-01-30T16:01:56;51869.41;;;-142.07;73.38
62072;BME280;48031;48.542;13.232;2024-01-30T16:06:18;51972.88;;;-142.07;74.53
62072;BME280;48031;48.542;13.232;2024-01-30T16:10:40;52001.84;;;-142.07;75.31
62072;BME280;48031;48.542;13.232;2024-01-30T16:15:01;52097.03;;;-142.07;76.64
62072;BME280;48031;48.542;13.232;2024-01-30T16:19:23;52109.47;;;-142.07;77.71
62072;BME280;48031;48.542;13.232;2024-01-30T16:23:50;52372.28;;;-142.07;79.08
62072;BME280;48031;48.542;13.232;2024-01-30T16:28:14;52217.06;;;-142.07;78.11
62072;BME280;48031;48.542;13.232;2024-01-30T16:32:44;52231.56;;;-142.07;78.37
62072;BME280;48031;48.542;13.232;2024-01-30T16:37:07;52372.28;;;-142.07;80.22
62072;BME280;48031;48.542;13.232;2024-01-30T16:41:33;52318.47;;;-142.07;79.08
62072;BME280;48031;48.542;13.232;2024-01-30T16:46:03;52208.78;;;-142.07;78.90
62072;BME280;48031;48.542;13.232;2024-01-30T16:50:30;52444.69;;;-142.07;81.41
62072;BME280;48031;48.542;13.232;2024-01-30T16:54:56;52508.84;;;-142.07;82.07
62072;BME280;48031;48.542;13.232;2024-01-30T16:59:24;52477.81;;;-142.07;80.91
62072;BME280;48031;48.542;13.232;2024-01-30T17:03:50;52446.78;;;-142.07;81.04
62072;BME280;48031;48.542;13.232;2024-01-30T17:08:18;52481.97;;;-142.07;81.93
62072;BME280;48031;48.542;13.232;2024-01-30T17:12:46;52736.50;;;-142.07;84.64
62072;BME280;48031;48.542;13.232;2024-01-30T17:17:12;52744.78;;;-142.07;85.43
62072;BME280;48031;48.542;13.232;2024-01-30T17:21:42;52871.03;;;-142.07;86.24
62072;BME280;48031;48.542;13.232;2024-01-30T17:26:10;52920.72;;;-142.07;86.66
62072;BME280;48031;48.542;13.232;2024-01-30T17:30:36;52726.16;;;-142.07;84.72
62072;BME280;48031;48.542;13.232;2024-01-30T17:35:04;52811.03;;;-142.07;85.18
62072;BME280;48031;48.542;13.232;2024-01-30T17:39:29;52755.16;;;-142.07;85.06
62072;BME280;48031;48.542;13.232;2024-01-30T17:43:56;52835.84;;;-142.07;85.47
62072;BME280;48031;48.542;13.232;2024-01-30T17:48:22;52790.31;;;-142.07;85.28
62072;BME280;48031;48.542;13.232;2024-01-30T17:52:43;52703.41;;;-142.07;83.95
62072;BME280;48031;48.542;13.232;2024-01-30T17:57:10;52773.78;;;-142.07;84.93
62072;BME280;48031;48.542;13.232;2024-01-30T18:01:33;52711.69;;;-142.07;85.20
62072;BME280;48031;48.542;13.232;2024-01-30T18:05:35;52831.72;;;-142.07;86.40
62072;BME280;48031;48.542;13.232;2024-01-30T18:09:37;52817.22;;;-142.07;86.91
62072;BME280;48031;48.542;13.232;2024-01-30T18:13:39;52866.91;;;-142.07;86.65
62072;BME280;48031;48.542;13.232;2024-01-30T18:17:41;52924.84;;;-142.07;87.87
62072;BME280;48031;48.542;13.232;2024-01-30T18:21:43;52875.19;;;-142.07;87.12
62072;BME280;48031;48.542;13.232;2024-01-30T18:25:45;52862.78;;;-142.07;86.66
62072;BME280;48031;48.542;13.232;2024-01-30T18:29:48;52897.94;;;-142.07;87.15
62072;BME280;48031;48.542;13.232;2024-01-30T18:33:53;52850.34;;;-142.07;86.90
62072;BME280;48031;48.542;13.232;2024-01-30T18:37:56;52910.38;;;-142.07;87.77
62072;BME280;48031;48.542;13.232;2024-01-30T18:41:59;52858.63;;;-142.07;86.29
62072;BME280;48031;48.542;13.232;2024-01-30T18:46:01;52889.66;;;-142.07;87.63
62072;BME280;48031;48.542;13.232;2024-01-30T18:50:03;52808.97;;;-142.07;86.72
62072;BME280;48031;48.542;13.232;2024-01-30T18:54:06;52879.31;;;-142.07;87.42
62072;BME280;48031;48.542;13.232;2024-01-30T18:58:08;52889.66;;;-142.07;88.31
62072;BME280;48031;48.542;13.232;2024-01-30T19:02:10;52850.34;;;-142.07;87.64
62072;BME280;48031;48.542;13.232;2024-01-30T19:06:13;52871.03;;;-142.07;87.87
62072;BME280;48031;48.542;13.232;2024-01-30T19:10:17;52779.97;;;-142.07;86.08
62072;BME280;48031;48.542;13.232;2024-01-30T19:14:32;52771.69;;;-142.07;86.58
62072;BME280;48031;48.542;13.232;2024-01-30T19:18:36;52854.50;;;-142.07;87.70
62072;BME280;48031;48.542;13.232;2024-01-30T19:22:39;52821.38;;;-142.07;86.32
62072;BME280;48031;48.542;13.232;2024-01-30T19:26:41;52877.25;;;-142.07;86.17
62072;BME280;48031;48.542;13.232;2024-01-30T19:30:44;52910.38;;;-142.07;86.53
62072;BME280;48031;48.542;13.232;2024-01-30T19:34:45;52676.50;;;-142.07;83.31
62072;BME280;48031;48.542;13.232;2024-01-30T19:38:48;52562.66;;;-142.07;82.92
62072;BME280;48031;48.542;13.232;2024-01-30T19:42:50;52527.47;;;-142.07;82.24
62072;BME280;48031;48.542;13.232;2024-01-30T19:46:53;52575.09;;;-142.07;83.04
62072;BME280;48031;48.542;13.232;2024-01-30T19:50:55;52490.22;;;-142.07;82.49
62072;BME280;48031;48.542;13.232;2024-01-30T19:54:58;52922.78;;;-142.07;87.47
62072;BME280;48031;48.542;13.232;2024-01-30T19:59:00;52529.56;;;-142.07;84.50
62072;BME280;48031;48.542;13.232;2024-01-30T20:03:03;52819.31;;;-142.07;87.31
62072;BME280;48031;48.542;13.232;2024-01-30T20:07:05;52873.13;;;-142.07;87.57
62072;BME280;48031;48.542;13.232;2024-01-30T20:11:14;52722.03;;;-142.07;84.24
62072;BME280;48031;48.542;13.232;2024-01-30T20:15:17;52947.63;;;-142.07;86.97
62072;BME280;48031;48.542;13.232;2024-01-30T20:19:20;52701.34;;;-142.07;84.16
62072;BME280;48031;48.542;13.232;2024-01-30T20:23:22;52775.84;;;-142.07;86.60
62072;BME280;48031;48.542;13.232;2024-01-30T20:27:24;52808.97;;;-142.07;86.90
62072;BME280;48031;48.542;13.232;2024-01-30T20:31:28;53073.88;;;-142.07;91.66
62072;BME280;48031;48.542;13.232;2024-01-30T20:35:30;53049.03;;;-142.07;90.60
62072;BME280;48031;48.542;13.232;2024-01-30T20:39:32;53030.41;;;-142.07;89.94
62072;BME280;48031;48.542;13.232;2024-01-30T20:43:34;52937.28;;;-142.07;87.89
62072;BME280;48031;48.542;13.232;2024-01-30T20:47:36;52968.31;;;-142.07;87.66
62072;BME280;48031;48.542;13.232;2024-01-30T20:51:38;52713.75;;;-142.07;82.47
62072;BME280;48031;48.542;13.232;2024-01-30T20:55:40;52713.75;;;-142.07;82.16
62072;BME280;48031;48.542;13.232;2024-01-30T20:59:42;52585.44;;;-142.07;81.88
62072;BME280;48031;48.542;13.232;2024-01-30T21:03:44;52577.16;;;-142.07;82.42
62072;BME280;48031;48.542;13.232;2024-01-30T21:07:52;52562.66;;;-142.07;82.39
62072;BME280;48031;48.542;13.232;2024-01-30T21:11:55;52639.25;;;-142.07;82.18
62072;BME280;48031;48.542;13.232;2024-01-30T21:15:57;52587.50;;;-142.07;81.87
62072;BME280;48031;48.542;13.232;2024-01-30T21:20:01;52515.06;;;-142.07;81.53
62072;BME280;48031;48.542;13.232;2024-01-30T21:24:03;52469.53;;;-142.07;80.84
62072;BME280;48031;48.542;13.232;2024-01-30T21:28:05;52622.69;;;-142.07;82.03
62072;BME280;48031;48.542;13.232;2024-01-30T21:32:07;52494.38;;;-142.07;81.73
62072;BME280;48031;48.542;13.232;2024-01-30T21:36:09;52455.06;;;-142.07;81.13